sensor_id;sensor_type;location;lat;lon;timestamp;pressure;altitude;pressure_sealevel;temperature;humidity
82379;BME280;72008;48.140;11.614;2023-08-07T00:00:00;95121.41;;;11.80;64.66
82379;BME280;72008;48.140;11.614;2023-08-07T00:01:01;95113.09;;;11.76;64.74
82379;BME280;72008;48.140;11.614;2023-08-07T00:02:01;95106.38;;;11.74;66.35
82379;BME280;72008;48.140;11.614;2023-08-07T00:03:01;95093.19;;;11.79;65.34
82379;BME280;72008;48.140;11.614;2023-08-07T00:04:02;95113.88;;;11.77;65.18
82379;BME280;72008;48.140;11.614;2023-08-07T00:05:02;95118.44;;;11.69;65.48
82379;BME280;72008;48.140;11.614;2023-08-07T00:06:03;95117.72;;;11.72;65.46
82379;BME280;72008;48.140;11.614;2023-08-07T00:07:03;95102.13;;;11.76;65.08
82379;BME280;72008;48.140;11.614;2023-08-07T00:08:04;95105.31;;;11.78;66.43
82379;BME280;72008;48.140;11.614;2023-08-07T00:09:04;95126.09;;;11.79;66.93
82379;BME280;72008;48.140;11.614;2023-08-07T00:10:05;95127.81;;;11.68;64.74
82379;BME280;72008;48.140;11.614;2023-08-07T00:11:07;95127.00;;;11.68;66.07
82379;BME280;72008;48.140;11.614;2023-08-07T00:12:08;95125.88;;;11.69;66.58
82379;BME280;72008;48.140;11.614;2023-08-07T00:13:09;95126.94;;;11.64;66.57
82379;BME280;72008;48.140;11.614;2023-08-07T00:14:09;95129.34;;;11.66;67.44
82379;BME280;72008;48.140;11.614;2023-08-07T00:15:10;95127.22;;;11.59;67.50
82379;BME280;72008;48.140;11.614;2023-08-07T00:16:10;95124.78;;;11.54;67.06
82379;BME280;72008;48.140;11.614;2023-08-07T00:17:11;95122.38;;;11.52;67.07
82379;BME280;72008;48.140;11.614;2023-08-07T00:18:11;95129.38;;;11.50;67.84
82379;BME280;72008;48.140;11.614;2023-08-07T00:19:11;95127.53;;;11.54;67.02
82379;BME280;72008;48.140;11.614;2023-08-07T00:20:12;95127.78;;;11.49;67.35
82379;BME280;72008;48.140;11.614;2023-08-07T00:21:12;95149.72;;;11.49;67.80
82379;BME280;72008;48.140;11.614;2023-08-07T00:22:12;95133.19;;;11.45;68.37
82379;BME280;72008;48.140;11.614;2023-08-07T00:23:13;95161.13;;;11.51;68.45
82379;BME280;72008;48.140;11.614;2023-08-07T00:24:13;95133.19;;;11.45;67.86
82379;BME280;72008;48.140;11.614;2023-08-07T00:25:14;95151.59;;;11.45;67.82
82379;BME280;72008;48.140;11.614;2023-08-07T00:26:14;95142.22;;;11.46;67.17
82379;BME280;72008;48.140;11.614;2023-08-07T00:27:15;95134.44;;;11.48;67.10
82379;BME280;72008;48.140;11.614;2023-08-07T00:28:15;95163.59;;;11.40;68.54
82379;BME280;72008;48.140;11.614;2023-08-07T00:29:15;95167.13;;;11.41;66.75
82379;BME280;72008;48.140;11.614;2023-08-07T00:30:16;95143.63;;;11.39;68.10
82379;BME280;72008;48.140;11.614;2023-08-07T00:31:16;95149.97;;;11.44;67.17
82379;BME280;72008;48.140;11.614;2023-08-07T00:32:17;95142.03;;;11.38;68.79
82379;BME280;72008;48.140;11.614;2023-08-07T00:33:17;95147.50;;;11.38;69.49
82379;BME280;72008;48.140;11.614;2023-08-07T00:34:18;95151.22;;;11.46;68.40
82379;BME280;72008;48.140;11.614;2023-08-07T00:35:18;95138.56;;;11.42;67.97
82379;BME280;72008;48.140;11.614;2023-08-07T00:36:19;95139.22;;;11.35;69.00
82379;BME280;72008;48.140;11.614;2023-08-07T00:37:19;95164.06;;;11.26;68.91
82379;BME280;72008;48.140;11.614;2023-08-07T00:38:19;95153.81;;;11.23;68.95
82379;BME280;72008;48.140;11.614;2023-08-07T00:39:20;95142.44;;;11.21;70.65
82379;BME280;72008;48.140;11.614;2023-08-07T00:40:20;95139.94;;;11.16;70.34
82379;BME280;72008;48.140;11.614;2023-08-07T00:41:21;95151.09;;;11.07;69.76
82379;BME280;72008;48.140;11.614;2023-08-07T00:42:21;95153.19;;;11.14;71.45
82379;BME280;72008;48.140;11.614;2023-08-07T00:43:21;95145.16;;;11.21;70.01
82379;BME280;72008;48.140;11.614;2023-08-07T00:44:22;95159.13;;;11.16;70.97
82379;BME280;72008;48.140;11.614;2023-08-07T00:45:22;95150.84;;;11.12;70.84
82379;BME280;72008;48.140;11.614;2023-08-07T00:46:23;95148.34;;;11.07;70.56
82379;BME280;72008;48.140;11.614;2023-08-07T00:47:26;95142.34;;;11.02;71.44
82379;BME280;72008;48.140;11.614;2023-08-07T00:48:26;95141.91;;;11.00;71.74
82379;BME280;72008;48.140;11.614;2023-08-07T00:49:27;95160.72;;;11.01;72.18
82379;BME280;72008;48.140;11.614;2023-08-07T00:50:28;95144.63;;;11.00;71.86
82379;BME280;72008;48.140;11.614;2023-08-07T00:51:28;95154.78;;;10.99;72.90
82379;BME280;72008;48.140;11.614;2023-08-07T00:52:30;95151.72;;;11.01;73.95
82379;BME280;72008;48.140;11.614;2023-08-07T00:53:31;95140.75;;;10.85;72.50
82379;BME280;72008;48.140;11.614;2023-08-07T00:54:32;95156.75;;;10.83;72.28
82379;BME280;72008;48.140;11.614;2023-08-07T00:55:32;95160.06;;;10.76;74.51
82379;BME280;72008;48.140;11.614;2023-08-07T00:56:33;95157.53;;;10.83;74.40
82379;BME280;72008;48.140;11.614;2023-08-07T00:57:34;95157.97;;;10.85;74.65
82379;BME280;72008;48.140;11.614;2023-08-07T00:58:36;95145.84;;;10.70;74.48
82379;BME280;72008;48.140;11.614;2023-08-07T00:59:36;95147.56;;;10.75;75.24
82379;BME280;72008;48.140;11.614;2023-08-07T01:00:37;95152.94;;;10.72;74.83
82379;BME280;72008;48.140;11.614;2023-08-07T01:01:38;95144.44;;;10.61;76.34
82379;BME280;72008;48.140;11.614;2023-08-07T01:02:38;95124.56;;;10.64;76.40
82379;BME280;72008;48.140;11.614;2023-08-07T01:03:39;95144.59;;;10.52;75.78
82379;BME280;72008;48.140;11.614;2023-08-07T01:04:39;95145.13;;;10.58;76.35
82379;BME280;72008;48.140;11.614;2023-08-07T01:05:40;95152.28;;;10.46;76.17
82379;BME280;72008;48.140;11.614;2023-08-07T01:06:40;95148.50;;;10.51;75.77
82379;BME280;72008;48.140;11.614;2023-08-07T01:07:41;95155.53;;;10.52;77.13
82379;BME280;72008;48.140;11.614;2023-08-07T01:08:42;95143.81;;;10.52;76.69
82379;BME280;72008;48.140;11.614;2023-08-07T01:09:42;95150.00;;;10.48;76.60
82379;BME280;72008;48.140;11.614;2023-08-07T01:11:11;95154.06;;;10.55;77.92
82379;BME280;72008;48.140;11.614;2023-08-07T01:12:30;95145.75;;;10.35;76.83
82379;BME280;72008;48.140;11.614;2023-08-07T01:15:23;95143.78;;;10.36;77.00
82379;BME280;72008;48.140;11.614;2023-08-07T01:17:46;95143.88;;;10.39;78.97
82379;BME280;72008;48.140;11.614;2023-08-07T01:18:49;95156.22;;;10.33;76.31
82379;BME280;72008;48.140;11.614;2023-08-07T01:19:51;95147.56;;;10.31;77.83
82379;BME280;72008;48.140;11.614;2023-08-07T01:20:52;95141.63;;;10.29;78.17
82379;BME280;72008;48.140;11.614;2023-08-07T01:23:07;95148.63;;;10.27;77.61
82379;BME280;72008;48.140;11.614;2023-08-07T01:24:08;95153.66;;;10.40;78.84
82379;BME280;72008;48.140;11.614;2023-08-07T01:25:08;95157.34;;;10.32;77.95
82379;BME280;72008;48.140;11.614;2023-08-07T01:26:08;95145.31;;;10.21;78.04
82379;BME280;72008;48.140;11.614;2023-08-07T01:28:33;95166.81;;;10.35;78.73
82379;BME280;72008;48.140;11.614;2023-08-07T01:31:10;95156.59;;;10.19;79.46
82379;BME280;72008;48.140;11.614;2023-08-07T01:32:19;95169.56;;;10.22;78.75
82379;BME280;72008;48.140;11.614;2023-08-07T01:33:32;95165.25;;;10.21;78.41
82379;BME280;72008;48.140;11.614;2023-08-07T01:34:38;95152.47;;;10.25;78.69
82379;BME280;72008;48.140;11.614;2023-08-07T01:35:44;95150.22;;;10.28;78.65
82379;BME280;72008;48.140;11.614;2023-08-07T01:36:48;95144.63;;;10.24;78.89
82379;BME280;72008;48.140;11.614;2023-08-07T01:37:51;95157.75;;;10.18;78.05
82379;BME280;72008;48.140;11.614;2023-08-07T01:38:56;95160.44;;;10.31;79.43
82379;BME280;72008;48.140;11.614;2023-08-07T01:40:00;95179.38;;;10.23;79.19
82379;BME280;72008;48.140;11.614;2023-08-07T01:41:01;95161.94;;;10.28;79.14
82379;BME280;72008;48.140;11.614;2023-08-07T01:42:03;95168.44;;;10.23;78.81
82379;BME280;72008;48.140;11.614;2023-08-07T01:43:04;95167.91;;;10.18;79.35
82379;BME280;72008;48.140;11.614;2023-08-07T01:44:05;95186.22;;;10.17;78.81
82379;BME280;72008;48.140;11.614;2023-08-07T01:45:06;95161.50;;;10.14;79.49
82379;BME280;72008;48.140;11.614;2023-08-07T01:46:06;95162.41;;;10.18;78.98
82379;BME280;72008;48.140;11.614;2023-08-07T01:47:06;95166.66;;;10.15;79.71
82379;BME280;72008;48.140;11.614;2023-08-07T01:48:07;95163.44;;;10.13;78.11
82379;BME280;72008;48.140;11.614;2023-08-07T01:49:07;95174.06;;;10.15;79.71
82379;BME280;72008;48.140;11.614;2023-08-07T01:50:08;95167.91;;;10.06;80.21
82379;BME280;72008;48.140;11.614;2023-08-07T01:51:08;95169.66;;;9.98;79.82
82379;BME280;72008;48.140;11.614;2023-08-07T01:52:08;95170.69;;;9.93;80.62
82379;BME280;72008;48.140;11.614;2023-08-07T01:53:09;95167.91;;;10.06;80.76
82379;BME280;72008;48.140;11.614;2023-08-07T01:54:09;95174.63;;;10.08;79.61
82379;BME280;72008;48.140;11.614;2023-08-07T01:55:10;95175.47;;;9.96;80.49
82379;BME280;72008;48.140;11.614;2023-08-07T01:56:10;95165.44;;;10.00;78.90
82379;BME280;72008;48.140;11.614;2023-08-07T01:57:10;95167.13;;;10.05;80.07
82379;BME280;72008;48.140;11.614;2023-08-07T01:58:11;95161.66;;;10.05;80.39
82379;BME280;72008;48.140;11.614;2023-08-07T01:59:11;95168.19;;;10.00;80.46
82379;BME280;72008;48.140;11.614;2023-08-07T02:00:12;95164.09;;;9.94;79.37
82379;BME280;72008;48.140;11.614;2023-08-07T02:01:12;95178.19;;;10.09;80.08
82379;BME280;72008;48.140;11.614;2023-08-07T02:02:13;95168.81;;;10.10;79.17
82379;BME280;72008;48.140;11.614;2023-08-07T02:03:13;95172.94;;;10.03;80.03
82379;BME280;72008;48.140;11.614;2023-08-07T02:04:13;95181.19;;;9.91;79.35
82379;BME280;72008;48.140;11.614;2023-08-07T02:05:14;95180.50;;;9.94;80.07
82379;BME280;72008;48.140;11.614;2023-08-07T02:06:15;95182.28;;;10.02;79.73
82379;BME280;72008;48.140;11.614;2023-08-07T02:07:15;95170.25;;;9.91;78.93
82379;BME280;72008;48.140;11.614;2023-08-07T02:08:16;95166.22;;;10.01;80.55
82379;BME280;72008;48.140;11.614;2023-08-07T02:09:16;95181.28;;;9.95;79.74
82379;BME280;72008;48.140;11.614;2023-08-07T02:10:16;95185.00;;;10.02;79.61
82379;BME280;72008;48.140;11.614;2023-08-07T02:11:17;95174.06;;;10.02;79.91
82379;BME280;72008;48.140;11.614;2023-08-07T02:12:17;95174.78;;;9.99;79.09
82379;BME280;72008;48.140;11.614;2023-08-07T02:13:18;95188.09;;;10.01;79.31
82379;BME280;72008;48.140;11.614;2023-08-07T02:14:18;95178.31;;;10.00;78.78
82379;BME280;72008;48.140;11.614;2023-08-07T02:15:18;95175.03;;;9.94;80.20
82379;BME280;72008;48.140;11.614;2023-08-07T02:16:19;95184.50;;;9.97;78.96
82379;BME280;72008;48.140;11.614;2023-08-07T02:17:21;95182.09;;;9.95;79.79
82379;BME280;72008;48.140;11.614;2023-08-07T02:18:21;95175.59;;;9.88;79.36
82379;BME280;72008;48.140;11.614;2023-08-07T02:19:22;95183.81;;;9.88;79.86
82379;BME280;72008;48.140;11.614;2023-08-07T02:20:22;95181.53;;;9.90;78.92
82379;BME280;72008;48.140;11.614;2023-08-07T02:21:22;95187.34;;;9.88;79.91
82379;BME280;72008;48.140;11.614;2023-08-07T02:22:23;95178.78;;;9.90;80.25
82379;BME280;72008;48.140;11.614;2023-08-07T02:23:23;95188.25;;;9.92;79.71
82379;BME280;72008;48.140;11.614;2023-08-07T02:24:24;95187.56;;;9.95;79.41
82379;BME280;72008;48.140;11.614;2023-08-07T02:25:24;95183.56;;;9.93;79.11
82379;BME280;72008;48.140;11.614;2023-08-07T02:26:25;95183.78;;;10.00;79.27
82379;BME280;72008;48.140;11.614;2023-08-07T02:27:25;95182.19;;;9.99;79.86
82379;BME280;72008;48.140;11.614;2023-08-07T02:28:25;95197.09;;;10.01;79.02
82379;BME280;72008;48.140;11.614;2023-08-07T02:29:26;95173.97;;;9.99;79.17
82379;BME280;72008;48.140;11.614;2023-08-07T02:30:26;95187.44;;;9.92;79.12
82379;BME280;72008;48.140;11.614;2023-08-07T02:31:27;95181.06;;;9.88;79.13
82379;BME280;72008;48.140;11.614;2023-08-07T02:32:27;95180.75;;;9.89;79.26
82379;BME280;72008;48.140;11.614;2023-08-07T02:33:27;95179.16;;;9.88;79.42
82379;BME280;72008;48.140;11.614;2023-08-07T02:34:31;95182.78;;;9.92;79.26
82379;BME280;72008;48.140;11.614;2023-08-07T02:35:31;95180.75;;;9.89;78.48
82379;BME280;72008;48.140;11.614;2023-08-07T02:36:32;95191.53;;;9.98;79.10
82379;BME280;72008;48.140;11.614;2023-08-07T02:37:32;95187.91;;;9.94;79.57
82379;BME280;72008;48.140;11.614;2023-08-07T02:38:33;95197.78;;;9.98;79.76
82379;BME280;72008;48.140;11.614;2023-08-07T02:39:33;95191.53;;;9.98;79.48
82379;BME280;72008;48.140;11.614;2023-08-07T02:40:33;95201.53;;;10.06;79.85
82379;BME280;72008;48.140;11.614;2023-08-07T02:41:34;95191.63;;;10.01;79.60
82379;BME280;72008;48.140;11.614;2023-08-07T02:42:34;95202.66;;;10.05;78.85
82379;BME280;72008;48.140;11.614;2023-08-07T02:43:35;95194.16;;;9.94;78.57
82379;BME280;72008;48.140;11.614;2023-08-07T02:44:35;95221.06;;;9.92;79.41
82379;BME280;72008;48.140;11.614;2023-08-07T02:45:35;95207.94;;;9.98;78.81
82379;BME280;72008;48.140;11.614;2023-08-07T02:46:36;95214.19;;;9.98;78.99
82379;BME280;72008;48.140;11.614;2023-08-07T02:47:36;95212.63;;;9.97;79.67
82379;BME280;72008;48.140;11.614;2023-08-07T02:48:37;95206.00;;;9.98;79.64
82379;BME280;72008;48.140;11.614;2023-08-07T02:49:37;95203.03;;;10.03;79.82
82379;BME280;72008;48.140;11.614;2023-08-07T02:50:37;95190.94;;;10.05;77.94
82379;BME280;72008;48.140;11.614;2023-08-07T02:51:38;95208.13;;;10.05;79.16
82379;BME280;72008;48.140;11.614;2023-08-07T02:52:38;95199.38;;;9.99;79.54
82379;BME280;72008;48.140;11.614;2023-08-07T02:53:39;95204.41;;;9.97;79.05
82379;BME280;72008;48.140;11.614;2023-08-07T02:54:39;95201.78;;;10.01;79.42
82379;BME280;72008;48.140;11.614;2023-08-07T02:55:43;95206.00;;;9.98;78.14
82379;BME280;72008;48.140;11.614;2023-08-07T02:56:43;95204.06;;;9.99;78.56
82379;BME280;72008;48.140;11.614;2023-08-07T02:57:44;95198.84;;;9.94;79.21
82379;BME280;72008;48.140;11.614;2023-08-07T02:58:44;95207.16;;;9.97;78.53
82379;BME280;72008;48.140;11.614;2023-08-07T02:59:45;95213.50;;;10.01;78.71
82379;BME280;72008;48.140;11.614;2023-08-07T03:00:45;95207.00;;;10.06;78.28
82379;BME280;72008;48.140;11.614;2023-08-07T03:01:45;95209.06;;;10.09;77.67
82379;BME280;72008;48.140;11.614;2023-08-07T03:02:46;95212.81;;;10.05;77.75
82379;BME280;72008;48.140;11.614;2023-08-07T03:03:46;95206.09;;;10.02;78.48
82379;BME280;72008;48.140;11.614;2023-08-07T03:04:47;95215.09;;;10.02;78.54
82379;BME280;72008;48.140;11.614;2023-08-07T03:05:51;95214.31;;;10.02;77.34
82379;BME280;72008;48.140;11.614;2023-08-07T03:06:52;95205.53;;;10.09;77.77
82379;BME280;72008;48.140;11.614;2023-08-07T03:07:52;95214.16;;;10.11;77.66
82379;BME280;72008;48.140;11.614;2023-08-07T03:08:52;95216.31;;;10.17;78.31
82379;BME280;72008;48.140;11.614;2023-08-07T03:09:53;95211.44;;;10.11;77.71
82379;BME280;72008;48.140;11.614;2023-08-07T03:10:56;95208.00;;;10.14;78.75
82379;BME280;72008;48.140;11.614;2023-08-07T03:11:56;95212.59;;;10.10;77.57
82379;BME280;72008;48.140;11.614;2023-08-07T03:12:57;95213.72;;;10.09;77.44
82379;BME280;72008;48.140;11.614;2023-08-07T03:13:57;95218.38;;;10.08;77.19
82379;BME280;72008;48.140;11.614;2023-08-07T03:14:57;95214.63;;;10.13;77.44
82379;BME280;72008;48.140;11.614;2023-08-07T03:16:02;95213.47;;;10.14;77.47
82379;BME280;72008;48.140;11.614;2023-08-07T03:17:04;95203.44;;;10.18;78.11
82379;BME280;72008;48.140;11.614;2023-08-07T03:18:04;95215.09;;;10.15;76.76
82379;BME280;72008;48.140;11.614;2023-08-07T03:19:05;95216.91;;;10.11;76.36
82379;BME280;72008;48.140;11.614;2023-08-07T03:20:05;95224.53;;;10.05;76.78
82379;BME280;72008;48.140;11.614;2023-08-07T03:21:06;95194.94;;;10.07;76.97
82379;BME280;72008;48.140;11.614;2023-08-07T03:22:06;95206.06;;;10.14;76.33
82379;BME280;72008;48.140;11.614;2023-08-07T03:23:07;95218.59;;;10.15;76.66
82379;BME280;72008;48.140;11.614;2023-08-07T03:24:07;95206.41;;;10.13;76.73
82379;BME280;72008;48.140;11.614;2023-08-07T03:25:08;95204.00;;;10.11;76.87
82379;BME280;72008;48.140;11.614;2023-08-07T03:26:11;95195.94;;;10.15;76.87
82379;BME280;72008;48.140;11.614;2023-08-07T03:27:11;95219.03;;;10.17;77.01
82379;BME280;72008;48.140;11.614;2023-08-07T03:28:12;95209.16;;;10.13;76.49
82379;BME280;72008;48.140;11.614;2023-08-07T03:29:12;95216.91;;;10.11;76.73
82379;BME280;72008;48.140;11.614;2023-08-07T03:30:13;95212.69;;;10.13;77.09
82379;BME280;72008;48.140;11.614;2023-08-07T03:31:13;95213.84;;;10.12;76.21
82379;BME280;72008;48.140;11.614;2023-08-07T03:32:13;95214.72;;;10.16;76.86
82379;BME280;72008;48.140;11.614;2023-08-07T03:33:14;95210.03;;;10.17;75.86
82379;BME280;72008;48.140;11.614;2023-08-07T03:34:14;95210.03;;;10.17;76.13
82379;BME280;72008;48.140;11.614;2023-08-07T03:35:15;95220.56;;;10.15;76.24
82379;BME280;72008;48.140;11.614;2023-08-07T03:36:15;95229.66;;;10.19;77.64
82379;BME280;72008;48.140;11.614;2023-08-07T03:37:16;95214.03;;;10.19;76.16
82379;BME280;72008;48.140;11.614;2023-08-07T03:38:16;95223.03;;;10.20;75.90
82379;BME280;72008;48.140;11.614;2023-08-07T03:39:16;95218.38;;;10.20;76.08
82379;BME280;72008;48.140;11.614;2023-08-07T03:40:17;95221.91;;;10.21;75.30
82379;BME280;72008;48.140;11.614;2023-08-07T03:41:18;95218.00;;;10.22;75.48
82379;BME280;72008;48.140;11.614;2023-08-07T03:42:19;95212.09;;;10.20;75.72
82379;BME280;72008;48.140;11.614;2023-08-07T03:43:19;95235.13;;;10.19;75.63
82379;BME280;72008;48.140;11.614;2023-08-07T03:44:20;95221.09;;;10.20;75.13
82379;BME280;72008;48.140;11.614;2023-08-07T03:45:20;95213.56;;;10.17;75.41
82379;BME280;72008;48.140;11.614;2023-08-07T03:46:20;95227.69;;;10.19;75.14
82379;BME280;72008;48.140;11.614;2023-08-07T03:47:21;95227.38;;;10.21;75.12
82379;BME280;72008;48.140;11.614;2023-08-07T03:48:21;95218.81;;;10.22;74.66
82379;BME280;72008;48.140;11.614;2023-08-07T03:49:22;95220.28;;;10.20;74.14
82379;BME280;72008;48.140;11.614;2023-08-07T03:50:22;95222.00;;;10.24;74.64
82379;BME280;72008;48.140;11.614;2023-08-07T03:51:22;95227.94;;;10.27;74.45
82379;BME280;72008;48.140;11.614;2023-08-07T03:52:23;95227.47;;;10.24;74.58
82379;BME280;72008;48.140;11.614;2023-08-07T03:53:23;95227.47;;;10.24;74.42
82379;BME280;72008;48.140;11.614;2023-08-07T03:54:24;95232.56;;;10.26;75.51
82379;BME280;72008;48.140;11.614;2023-08-07T03:55:24;95228.25;;;10.25;74.38
82379;BME280;72008;48.140;11.614;2023-08-07T03:56:24;95233.72;;;10.25;74.11
82379;BME280;72008;48.140;11.614;2023-08-07T03:57:25;95232.56;;;10.26;74.13
82379;BME280;72008;48.140;11.614;2023-08-07T03:58:25;95232.38;;;10.31;74.91
82379;BME280;72008;48.140;11.614;2023-08-07T03:59:26;95233.53;;;10.30;74.16
82379;BME280;72008;48.140;11.614;2023-08-07T04:00:26;95243.78;;;10.33;74.13
82379;BME280;72008;48.140;11.614;2023-08-07T04:01:26;95236.25;;;10.30;73.62
82379;BME280;72008;48.140;11.614;2023-08-07T04:02:27;95236.34;;;10.34;73.95
82379;BME280;72008;48.140;11.614;2023-08-07T04:03:27;95243.41;;;10.35;74.06
82379;BME280;72008;48.140;11.614;2023-08-07T04:04:28;95235.56;;;10.33;73.80
82379;BME280;72008;48.140;11.614;2023-08-07T04:05:28;95239.53;;;10.36;74.25
82379;BME280;72008;48.140;11.614;2023-08-07T04:06:29;95223.13;;;10.36;72.83
82379;BME280;72008;48.140;11.614;2023-08-07T04:07:29;95239.09;;;10.34;72.81
82379;BME280;72008;48.140;11.614;2023-08-07T04:08:29;95248.19;;;10.38;73.86
82379;BME280;72008;48.140;11.614;2023-08-07T04:09:31;95241.91;;;10.37;73.12
82379;BME280;72008;48.140;11.614;2023-08-07T04:10:32;95241.59;;;10.39;74.13
82379;BME280;72008;48.140;11.614;2023-08-07T04:11:32;95247.38;;;10.37;73.46
82379;BME280;72008;48.140;11.614;2023-08-07T04:12:32;95249.69;;;10.35;72.26
82379;BME280;72008;48.140;11.614;2023-08-07T04:13:33;95257.53;;;10.37;73.77
82379;BME280;72008;48.140;11.614;2023-08-07T04:14:33;95245.03;;;10.36;72.71
82379;BME280;72008;48.140;11.614;2023-08-07T04:15:34;95256.06;;;10.39;73.96
82379;BME280;72008;48.140;11.614;2023-08-07T04:16:34;95241.91;;;10.37;72.24
82379;BME280;72008;48.140;11.614;2023-08-07T04:17:34;95238.06;;;10.38;73.23
82379;BME280;72008;48.140;11.614;2023-08-07T04:18:35;95232.78;;;10.45;73.46
82379;BME280;72008;48.140;11.614;2023-08-07T04:19:35;95256.16;;;10.43;72.18
82379;BME280;72008;48.140;11.614;2023-08-07T04:20:36;95238.84;;;10.39;72.69
82379;BME280;72008;48.140;11.614;2023-08-07T04:21:36;95236.91;;;10.39;72.33
82379;BME280;72008;48.140;11.614;2023-08-07T04:22:36;95246.28;;;10.38;73.12
82379;BME280;72008;48.140;11.614;2023-08-07T04:23:37;95236.53;;;10.41;73.37
82379;BME280;72008;48.140;11.614;2023-08-07T04:24:37;95246.38;;;10.42;72.44
82379;BME280;72008;48.140;11.614;2023-08-07T04:25:38;95249.00;;;10.38;72.74
82379;BME280;72008;48.140;11.614;2023-08-07T04:26:38;95243.25;;;10.43;72.64
82379;BME280;72008;48.140;11.614;2023-08-07T04:27:38;95237.69;;;10.40;72.21
82379;BME280;72008;48.140;11.614;2023-08-07T04:28:39;95249.19;;;10.45;72.67
82379;BME280;72008;48.140;11.614;2023-08-07T04:29:39;95244.06;;;10.44;72.49
82379;BME280;72008;48.140;11.614;2023-08-07T04:30:41;95254.66;;;10.45;72.56
82379;BME280;72008;48.140;11.614;2023-08-07T04:31:41;95251.03;;;10.41;71.67
82379;BME280;72008;48.140;11.614;2023-08-07T04:32:42;95271.19;;;10.49;73.13
82379;BME280;72008;48.140;11.614;2023-08-07T04:33:42;95250.34;;;10.44;71.36
82379;BME280;72008;48.140;11.614;2023-08-07T04:34:42;95259.81;;;10.47;71.62
82379;BME280;72008;48.140;11.614;2023-08-07T04:35:43;95261.47;;;10.52;71.47
82379;BME280;72008;48.140;11.614;2023-08-07T04:36:43;95250.78;;;10.46;70.64
82379;BME280;72008;48.140;11.614;2023-08-07T04:37:44;95255.00;;;10.44;71.23
82379;BME280;72008;48.140;11.614;2023-08-07T04:38:44;95252.81;;;10.50;70.74
82379;BME280;72008;48.140;11.614;2023-08-07T04:39:45;95268.91;;;10.51;70.34
82379;BME280;72008;48.140;11.614;2023-08-07T04:40:46;95273.91;;;10.49;71.75
82379;BME280;72008;48.140;11.614;2023-08-07T04:41:46;95259.44;;;10.48;70.47
82379;BME280;72008;48.140;11.614;2023-08-07T04:42:48;95263.75;;;10.50;70.97
82379;BME280;72008;48.140;11.614;2023-08-07T04:43:49;95261.16;;;10.53;71.31
82379;BME280;72008;48.140;11.614;2023-08-07T04:44:49;95262.38;;;10.56;72.56
82379;BME280;72008;48.140;11.614;2023-08-07T04:45:50;95272.88;;;10.54;70.65
82379;BME280;72008;48.140;11.614;2023-08-07T04:46:50;95264.69;;;10.54;71.12
82379;BME280;72008;48.140;11.614;2023-08-07T04:47:50;95272.09;;;10.53;70.38
82379;BME280;72008;48.140;11.614;2023-08-07T04:48:51;95266.63;;;10.53;71.16
82379;BME280;72008;48.140;11.614;2023-08-07T04:49:51;95266.16;;;10.51;70.37
82379;BME280;72008;48.140;11.614;2023-08-07T04:50:52;95261.94;;;10.54;70.25
82379;BME280;72008;48.140;11.614;2023-08-07T04:51:52;95267.06;;;10.55;70.59
82379;BME280;72008;48.140;11.614;2023-08-07T04:52:52;95267.84;;;10.56;70.16
82379;BME280;72008;48.140;11.614;2023-08-07T04:53:53;95280.03;;;10.58;70.09
82379;BME280;72008;48.140;11.614;2023-08-07T04:54:53;95275.72;;;10.57;70.25
82379;BME280;72008;48.140;11.614;2023-08-07T04:55:54;95262.13;;;10.61;70.65
82379;BME280;72008;48.140;11.614;2023-08-07T04:56:54;95255.41;;;10.58;70.28
82379;BME280;72008;48.140;11.614;2023-08-07T04:57:54;95277.66;;;10.57;71.61
82379;BME280;72008;48.140;11.614;2023-08-07T04:58:55;95278.78;;;10.56;70.04
82379;BME280;72008;48.140;11.614;2023-08-07T04:59:55;95265.56;;;10.58;69.18
82379;BME280;72008;48.140;11.614;2023-08-07T05:00:56;95283.31;;;10.64;70.39
82379;BME280;72008;48.140;11.614;2023-08-07T05:01:57;95271.59;;;10.63;70.21
82379;BME280;72008;48.140;11.614;2023-08-07T05:02:57;95272.75;;;10.62;70.17
82379;BME280;72008;48.140;11.614;2023-08-07T05:03:58;95282.53;;;10.63;69.11
82379;BME280;72008;48.140;11.614;2023-08-07T05:04:58;95282.53;;;10.63;70.05
82379;BME280;72008;48.140;11.614;2023-08-07T05:06:02;95286.06;;;10.64;70.53
82379;BME280;72008;48.140;11.614;2023-08-07T05:07:02;95279.47;;;10.65;69.72
82379;BME280;72008;48.140;11.614;2023-08-07T05:08:03;95281.94;;;10.70;69.54
82379;BME280;72008;48.140;11.614;2023-08-07T05:09:03;95290.41;;;10.65;69.16
82379;BME280;72008;48.140;11.614;2023-08-07T05:10:04;95294.81;;;10.69;68.77
82379;BME280;72008;48.140;11.614;2023-08-07T05:11:05;95285.81;;;10.69;69.30
82379;BME280;72008;48.140;11.614;2023-08-07T05:12:06;95281.94;;;10.70;69.24
82379;BME280;72008;48.140;11.614;2023-08-07T05:13:06;95290.59;;;10.72;70.42
82379;BME280;72008;48.140;11.614;2023-08-07T05:14:07;95286.72;;;10.73;69.17
82379;BME280;72008;48.140;11.614;2023-08-07T05:15:07;95286.00;;;10.76;69.02
82379;BME280;72008;48.140;11.614;2023-08-07T05:16:08;95287.97;;;10.76;69.13
82379;BME280;72008;48.140;11.614;2023-08-07T05:17:08;95283.19;;;10.73;69.28
82379;BME280;72008;48.140;11.614;2023-08-07T05:18:09;95286.00;;;10.76;68.81
82379;BME280;72008;48.140;11.614;2023-08-07T05:19:09;95294.13;;;10.73;67.99
82379;BME280;72008;48.140;11.614;2023-08-07T05:20:10;95297.31;;;10.75;69.66
82379;BME280;72008;48.140;11.614;2023-08-07T05:21:10;95297.66;;;10.73;68.76
82379;BME280;72008;48.140;11.614;2023-08-07T05:22:11;95293.09;;;10.77;67.97
82379;BME280;72008;48.140;11.614;2023-08-07T05:23:11;95291.47;;;10.76;67.82
82379;BME280;72008;48.140;11.614;2023-08-07T05:24:11;95296.97;;;10.76;69.37
82379;BME280;72008;48.140;11.614;2023-08-07T05:25:12;95293.53;;;10.79;68.23